sensor_id;sensor_type;location;lat;lon;timestamp;pressure;altitude;pressure_sealevel;temperature;humidity
20971;BME280;10644;48.834;10.088;2022-09-30T00:01:49;95754.84;;;13.48;56.90
20971;BME280;10644;48.834;10.088;2022-09-30T00:04:21;95767.59;;;13.49;56.95
20971;BME280;10644;48.834;10.088;2022-09-30T00:06:53;95769.16;;;13.41;57.13
20971;BME280;10644;48.834;10.088;2022-09-30T00:09:21;95768.56;;;13.37;57.25
20971;BME280;10644;48.834;10.088;2022-09-30T00:11:46;95776.06;;;13.29;56.75
20971;BME280;10644;48.834;10.088;2022-09-30T00:14:22;95788.34;;;13.26;57.23
20971;BME280;10644;48.834;10.088;2022-09-30T00:16:52;95779.94;;;13.24;57.01
20971;BME280;10644;48.834;10.088;2022-09-30T00:19:19;95774.47;;;13.17;57.44
20971;BME280;10644;48.834;10.088;2022-09-30T00:21:45;95763.50;;;13.15;57.06
20971;BME280;10644;48.834;10.088;2022-09-30T00:24:13;95769.56;;;13.25;56.91
20971;BME280;10644;48.834;10.088;2022-09-30T00:26:43;95759.84;;;13.29;56.78
20971;BME280;10644;48.834;10.088;2022-09-30T00:29:15;95757.50;;;13.26;56.56
20971;BME280;10644;48.834;10.088;2022-09-30T00:31:41;95759.50;;;13.22;56.56
20971;BME280;10644;48.834;10.088;2022-09-30T00:34:06;95749.59;;;13.18;56.93
20971;BME280;10644;48.834;10.088;2022-09-30T00:36:50;95755.53;;;13.18;57.29
20971;BME280;10644;48.834;10.088;2022-09-30T00:39:23;95764.78;;;12.88;58.06
20971;BME280;10644;48.834;10.088;2022-09-30T00:41:54;95763.78;;;12.57;58.59
20971;BME280;10644;48.834;10.088;2022-09-30T00:44:47;95778.84;;;12.62;58.80
20971;BME280;10644;48.834;10.088;2022-09-30T00:50:42;95776.63;;;12.57;58.75
20971;BME280;10644;48.834;10.088;2022-09-30T00:53:16;95780.13;;;12.56;58.05
20971;BME280;10644;48.834;10.088;2022-09-30T00:56:06;95784.56;;;12.32;57.40
20971;BME280;10644;48.834;10.088;2022-09-30T00:58:47;95792.50;;;12.29;57.89
20971;BME280;10644;48.834;10.088;2022-09-30T01:01:22;95787.53;;;12.04;57.68
20971;BME280;10644;48.834;10.088;2022-09-30T01:03:56;95792.69;;;12.15;58.17
20971;BME280;10644;48.834;10.088;2022-09-30T01:06:25;95803.34;;;12.33;57.40
20971;BME280;10644;48.834;10.088;2022-09-30T01:08:51;95797.63;;;12.29;56.95
20971;BME280;10644;48.834;10.088;2022-09-30T01:11:18;95793.28;;;12.30;57.04
20971;BME280;10644;48.834;10.088;2022-09-30T01:13:49;95798.81;;;12.36;56.95
20971;BME280;10644;48.834;10.088;2022-09-30T01:22:20;95805.31;;;12.18;57.08
20971;BME280;10644;48.834;10.088;2022-09-30T01:25:12;95811.00;;;12.11;57.16
20971;BME280;10644;48.834;10.088;2022-09-30T01:27:48;95812.53;;;12.13;57.23
20971;BME280;10644;48.834;10.088;2022-09-30T01:33:40;95806.72;;;12.33;57.21
20971;BME280;10644;48.834;10.088;2022-09-30T01:39:57;95821.19;;;12.12;56.41
20971;BME280;10644;48.834;10.088;2022-09-30T01:42:47;95820.66;;;11.96;57.16
20971;BME280;10644;48.834;10.088;2022-09-30T01:45:25;95818.19;;;11.95;57.85
20971;BME280;10644;48.834;10.088;2022-09-30T01:52:11;95815.28;;;11.99;56.68
20971;BME280;10644;48.834;10.088;2022-09-30T01:57:07;95809.16;;;11.78;57.59
20971;BME280;10644;48.834;10.088;2022-09-30T01:59:57;95819.53;;;11.77;57.00
20971;BME280;10644;48.834;10.088;2022-09-30T02:02:46;95814.28;;;11.55;57.26
20971;BME280;10644;48.834;10.088;2022-09-30T02:08:31;95818.13;;;11.73;57.05
20971;BME280;10644;48.834;10.088;2022-09-30T02:11:06;95818.50;;;11.79;57.12
20971;BME280;10644;48.834;10.088;2022-09-30T02:16:44;95822.28;;;11.97;57.02
20971;BME280;10644;48.834;10.088;2022-09-30T02:19:18;95830.47;;;12.02;56.25
20971;BME280;10644;48.834;10.088;2022-09-30T02:21:57;95838.72;;;11.95;56.26
20971;BME280;10644;48.834;10.088;2022-09-30T02:24:25;95847.72;;;12.00;55.92
20971;BME280;10644;48.834;10.088;2022-09-30T02:26:54;95845.59;;;11.94;56.01
20971;BME280;10644;48.834;10.088;2022-09-30T02:29:38;95841.84;;;11.87;55.83
20971;BME280;10644;48.834;10.088;2022-09-30T02:32:23;95853.97;;;11.85;56.43
20971;BME280;10644;48.834;10.088;2022-09-30T02:34:59;95842.09;;;11.84;57.03
20971;BME280;10644;48.834;10.088;2022-09-30T02:37:38;95851.19;;;11.88;56.73
20971;BME280;10644;48.834;10.088;2022-09-30T02:40:11;95851.41;;;11.85;56.73
20971;BME280;10644;48.834;10.088;2022-09-30T02:42:39;95849.66;;;11.86;56.98
20971;BME280;10644;48.834;10.088;2022-09-30T02:45:11;95841.81;;;11.76;56.72
20971;BME280;10644;48.834;10.088;2022-09-30T02:50:25;95841.56;;;11.56;57.51
20971;BME280;10644;48.834;10.088;2022-09-30T02:53:17;95852.47;;;11.59;58.06
20971;BME280;10644;48.834;10.088;2022-09-30T02:56:09;95851.69;;;11.70;57.95
20971;BME280;10644;48.834;10.088;2022-09-30T02:58:41;95852.16;;;11.75;58.09
20971;BME280;10644;48.834;10.088;2022-09-30T03:01:12;95845.06;;;11.78;57.97
20971;BME280;10644;48.834;10.088;2022-09-30T03:03:46;95845.78;;;11.80;58.06
20971;BME280;10644;48.834;10.088;2022-09-30T03:06:17;95850.19;;;11.78;58.34
20971;BME280;10644;48.834;10.088;2022-09-30T03:08:45;95850.94;;;11.80;58.46
20971;BME280;10644;48.834;10.088;2022-09-30T03:11:24;95847.22;;;11.84;58.33
20971;BME280;10644;48.834;10.088;2022-09-30T03:20:08;95857.91;;;11.78;58.12
20971;BME280;10644;48.834;10.088;2022-09-30T03:31:19;95886.09;;;11.67;57.42
20971;BME280;10644;48.834;10.088;2022-09-30T03:36:41;95891.22;;;11.67;57.75
20971;BME280;10644;48.834;10.088;2022-09-30T03:39:24;95896.13;;;11.70;57.46
20971;BME280;10644;48.834;10.088;2022-09-30T03:42:13;95893.22;;;11.75;57.82
20971;BME280;10644;48.834;10.088;2022-09-30T03:47:32;95894.06;;;11.75;57.24
20971;BME280;10644;48.834;10.088;2022-09-30T03:50:14;95909.22;;;11.78;57.51
20971;BME280;10644;48.834;10.088;2022-09-30T03:52:41;95899.38;;;11.72;57.59
20971;BME280;10644;48.834;10.088;2022-09-30T03:55:15;95904.91;;;11.79;57.57
20971;BME280;10644;48.834;10.088;2022-09-30T03:57:52;95911.06;;;11.76;56.99
20971;BME280;10644;48.834;10.088;2022-09-30T04:00:19;95909.28;;;11.66;57.10
20971;BME280;10644;48.834;10.088;2022-09-30T04:02:52;95920.81;;;11.35;58.22
20971;BME280;10644;48.834;10.088;2022-09-30T04:05:18;95921.53;;;11.37;57.66
20971;BME280;10644;48.834;10.088;2022-09-30T04:07:50;95923.16;;;11.38;57.92
20971;BME280;10644;48.834;10.088;2022-09-30T04:10:22;95920.16;;;11.44;57.89
20971;BME280;10644;48.834;10.088;2022-09-30T04:12:54;95922.47;;;11.36;57.82
20971;BME280;10644;48.834;10.088;2022-09-30T04:15:28;95922.88;;;11.43;57.87
20971;BME280;10644;48.834;10.088;2022-09-30T04:17:54;95921.09;;;11.43;57.93
20971;BME280;10644;48.834;10.088;2022-09-30T04:20:19;95918.25;;;11.48;58.04
20971;BME280;10644;48.834;10.088;2022-09-30T04:23:10;95915.34;;;11.52;57.25
20971;BME280;10644;48.834;10.088;2022-09-30T04:25:41;95919.28;;;11.45;57.64
20971;BME280;10644;48.834;10.088;2022-09-30T04:28:07;95909.72;;;11.47;57.92
20971;BME280;10644;48.834;10.088;2022-09-30T04:30:33;95927.16;;;11.42;57.87
20971;BME280;10644;48.834;10.088;2022-09-30T04:32:58;95916.13;;;11.29;57.74
20971;BME280;10644;48.834;10.088;2022-09-30T04:35:38;95924.00;;;11.26;58.18
20971;BME280;10644;48.834;10.088;2022-09-30T04:38:04;95934.78;;;11.31;58.49
20971;BME280;10644;48.834;10.088;2022-09-30T04:40:45;95926.97;;;11.33;58.12
20971;BME280;10644;48.834;10.088;2022-09-30T04:43:11;95939.13;;;11.18;58.34
20971;BME280;10644;48.834;10.088;2022-09-30T04:45:41;95948.53;;;11.18;58.35
20971;BME280;10644;48.834;10.088;2022-09-30T04:48:08;95942.59;;;11.17;58.66
20971;BME280;10644;48.834;10.088;2022-09-30T04:50:33;95940.56;;;11.22;58.46
20971;BME280;10644;48.834;10.088;2022-09-30T04:53:01;95938.69;;;11.24;58.18
20971;BME280;10644;48.834;10.088;2022-09-30T04:55:30;95940.13;;;11.28;58.54
20971;BME280;10644;48.834;10.088;2022-09-30T04:57:55;95945.03;;;11.31;58.24
20971;BME280;10644;48.834;10.088;2022-09-30T05:00:21;95942.38;;;11.33;57.92
20971;BME280;10644;48.834;10.088;2022-09-30T05:02:47;95927.09;;;11.31;57.74
20971;BME280;10644;48.834;10.088;2022-09-30T05:05:14;95936.63;;;11.29;57.67
20971;BME280;10644;48.834;10.088;2022-09-30T05:07:44;95925.88;;;11.24;57.42
20971;BME280;10644;48.834;10.088;2022-09-30T05:10:11;95942.81;;;11.14;57.77
20971;BME280;10644;48.834;10.088;2022-09-30T05:12:38;95927.66;;;11.11;57.68
20971;BME280;10644;48.834;10.088;2022-09-30T05:15:09;95938.09;;;11.21;58.30
20971;BME280;10644;48.834;10.088;2022-09-30T05:17:35;95932.13;;;11.20;57.72
20971;BME280;10644;48.834;10.088;2022-09-30T05:20:00;95942.38;;;11.08;57.16
20971;BME280;10644;48.834;10.088;2022-09-30T05:22:29;95959.19;;;10.99;57.67
20971;BME280;10644;48.834;10.088;2022-09-30T05:24:55;95954.28;;;10.84;57.94
20971;BME280;10644;48.834;10.088;2022-09-30T05:27:24;95959.03;;;10.77;57.93
20971;BME280;10644;48.834;10.088;2022-09-30T05:29:49;95955.72;;;10.75;58.03
20971;BME280;10644;48.834;10.088;2022-09-30T05:32:15;95968.63;;;10.86;57.85
20971;BME280;10644;48.834;10.088;2022-09-30T05:34:43;95977.25;;;10.85;57.57
20971;BME280;10644;48.834;10.088;2022-09-30T05:37:10;95964.63;;;10.82;58.13
20971;BME280;10644;48.834;10.088;2022-09-30T05:39:35;95983.81;;;10.89;58.13
20971;BME280;10644;48.834;10.088;2022-09-30T05:42:01;95983.41;;;10.95;58.36
20971;BME280;10644;48.834;10.088;2022-09-30T05:44:33;95984.94;;;10.98;57.83
20971;BME280;10644;48.834;10.088;2022-09-30T05:46:59;95989.94;;;10.99;57.66
20971;BME280;10644;48.834;10.088;2022-09-30T05:49:33;95991.91;;;11.08;57.35
20971;BME280;10644;48.834;10.088;2022-09-30T05:52:12;95990.78;;;11.12;57.49
20971;BME280;10644;48.834;10.088;2022-09-30T05:54:57;95992.09;;;11.05;57.53
20971;BME280;10644;48.834;10.088;2022-09-30T05:57:26;95994.59;;;10.94;57.53
20971;BME280;10644;48.834;10.088;2022-09-30T06:00:07;95992.13;;;10.93;57.91
20971;BME280;10644;48.834;10.088;2022-09-30T06:02:33;95991.09;;;10.95;57.92
20971;BME280;10644;48.834;10.088;2022-09-30T06:05:05;95990.97;;;10.97;58.03
20971;BME280;10644;48.834;10.088;2022-09-30T06:07:47;95994.06;;;11.02;57.68
20971;BME280;10644;48.834;10.088;2022-09-30T06:10:27;95989.53;;;11.05;57.89
20971;BME280;10644;48.834;10.088;2022-09-30T06:13:03;95998.75;;;11.08;57.60
20971;BME280;10644;48.834;10.088;2022-09-30T06:15:30;96000.44;;;11.09;57.33
20971;BME280;10644;48.834;10.088;2022-09-30T06:17:58;95994.25;;;10.74;57.96
20971;BME280;10644;48.834;10.088;2022-09-30T06:20:28;95996.09;;;10.72;58.07
20971;BME280;10644;48.834;10.088;2022-09-30T06:23:02;96012.06;;;10.75;58.07
20971;BME280;10644;48.834;10.088;2022-09-30T06:25:43;96019.34;;;10.81;58.58
20971;BME280;10644;48.834;10.088;2022-09-30T06:28:11;96016.19;;;10.90;58.15
20971;BME280;10644;48.834;10.088;2022-09-30T06:30:48;96020.09;;;10.96;58.17
20971;BME280;10644;48.834;10.088;2022-09-30T06:33:23;96020.91;;;10.96;58.47
20971;BME280;10644;48.834;10.088;2022-09-30T06:35:51;96026.03;;;10.96;58.57
20971;BME280;10644;48.834;10.088;2022-09-30T06:38:27;96030.34;;;11.08;58.94
20971;BME280;10644;48.834;10.088;2022-09-30T06:43:46;96026.38;;;11.29;58.49
20971;BME280;10644;48.834;10.088;2022-09-30T06:46:12;96033.63;;;11.35;58.78
20971;BME280;10644;48.834;10.088;2022-09-30T06:48:38;96033.63;;;11.35;58.44
20971;BME280;10644;48.834;10.088;2022-09-30T06:51:09;96041.00;;;11.27;59.72
20971;BME280;10644;48.834;10.088;2022-09-30T06:53:38;96056.16;;;11.05;60.14
20971;BME280;10644;48.834;10.088;2022-09-30T06:56:04;96048.28;;;11.08;60.02
20971;BME280;10644;48.834;10.088;2022-09-30T06:58:32;96053.34;;;11.22;60.50
20971;BME280;10644;48.834;10.088;2022-09-30T07:01:05;96057.41;;;11.37;59.51
20971;BME280;10644;48.834;10.088;2022-09-30T07:03:33;96059.06;;;11.51;60.19
20971;BME280;10644;48.834;10.088;2022-09-30T07:06:01;96068.41;;;11.64;60.24
20971;BME280;10644;48.834;10.088;2022-09-30T07:08:29;96063.78;;;11.69;60.72
20971;BME280;10644;48.834;10.088;2022-09-30T07:11:02;96057.84;;;11.56;61.92
20971;BME280;10644;48.834;10.088;2022-09-30T07:13:42;96064.41;;;11.73;62.32
20971;BME280;10644;48.834;10.088;2022-09-30T07:16:09;96062.97;;;11.31;65.71
20971;BME280;10644;48.834;10.088;2022-09-30T07:18:44;96072.59;;;11.28;65.95
20971;BME280;10644;48.834;10.088;2022-09-30T07:21:13;96075.03;;;11.42;65.51
20971;BME280;10644;48.834;10.088;2022-09-30T07:23:48;96073.88;;;11.60;65.44
20971;BME280;10644;48.834;10.088;2022-09-30T07:26:18;96073.41;;;11.91;64.86
20971;BME280;10644;48.834;10.088;2022-09-30T07:28:44;96083.19;;;12.22;63.86
20971;BME280;10644;48.834;10.088;2022-09-30T07:31:28;96080.41;;;12.48;62.88
20971;BME280;10644;48.834;10.088;2022-09-30T07:34:01;96067.19;;;12.65;62.76
20971;BME280;10644;48.834;10.088;2022-09-30T07:36:27;96076.50;;;12.90;62.67
20971;BME280;10644;48.834;10.088;2022-09-30T07:38:55;96078.13;;;13.03;62.18
20971;BME280;10644;48.834;10.088;2022-09-30T07:41:26;96078.13;;;13.03;62.16
20971;BME280;10644;48.834;10.088;2022-09-30T07:43:57;96087.28;;;12.48;64.16
20971;BME280;10644;48.834;10.088;2022-09-30T07:46:30;96091.81;;;12.21;65.73
20971;BME280;10644;48.834;10.088;2022-09-30T07:48:57;96101.88;;;12.11;65.76
20971;BME280;10644;48.834;10.088;2022-09-30T07:51:33;96104.38;;;12.00;66.37
20971;BME280;10644;48.834;10.088;2022-09-30T07:54:04;96098.34;;;12.01;66.05
20971;BME280;10644;48.834;10.088;2022-09-30T07:56:32;96107.00;;;12.24;66.09
20971;BME280;10644;48.834;10.088;2022-09-30T07:59:00;96099.41;;;12.22;66.04
20971;BME280;10644;48.834;10.088;2022-09-30T08:01:28;96107.53;;;12.16;66.61
20971;BME280;10644;48.834;10.088;2022-09-30T08:04:01;96108.16;;;12.43;65.62
20971;BME280;10644;48.834;10.088;2022-09-30T08:06:52;96116.16;;;12.51;65.22
20971;BME280;10644;48.834;10.088;2022-09-30T08:09:21;96105.25;;;12.24;66.26
20971;BME280;10644;48.834;10.088;2022-09-30T08:12:06;96100.84;;;12.26;66.60
20971;BME280;10644;48.834;10.088;2022-09-30T08:14:36;96114.78;;;12.35;66.48
20971;BME280;10644;48.834;10.088;2022-09-30T08:17:02;96105.09;;;12.38;66.54
20971;BME280;10644;48.834;10.088;2022-09-30T08:19:39;96115.97;;;12.42;66.79
20971;BME280;10644;48.834;10.088;2022-09-30T08:22:24;96109.28;;;12.52;66.02
20971;BME280;10644;48.834;10.088;2022-09-30T08:24:52;96109.25;;;12.28;67.58
20971;BME280;10644;48.834;10.088;2022-09-30T08:27:19;96121.72;;;12.45;66.91
20971;BME280;10644;48.834;10.088;2022-09-30T08:29:44;96126.22;;;12.54;67.10
20971;BME280;10644;48.834;10.088;2022-09-30T08:32:10;96120.81;;;12.70;67.02
20971;BME280;10644;48.834;10.088;2022-09-30T08:34:35;96128.72;;;12.90;65.75
20971;BME280;10644;48.834;10.088;2022-09-30T08:37:03;96138.69;;;13.18;65.17
20971;BME280;10644;48.834;10.088;2022-09-30T08:39:32;96125.16;;;13.27;65.02
20971;BME280;10644;48.834;10.088;2022-09-30T08:42:39;96136.66;;;13.45;64.66
20971;BME280;10644;48.834;10.088;2022-09-30T08:47:59;96135.25;;;13.07;66.00
20971;BME280;10644;48.834;10.088;2022-09-30T08:53:49;96148.69;;;13.34;65.74
20971;BME280;10644;48.834;10.088;2022-09-30T08:56:25;96146.63;;;13.60;65.66
20971;BME280;10644;48.834;10.088;2022-09-30T08:58:58;96146.34;;;13.98;64.43
20971;BME280;10644;48.834;10.088;2022-09-30T09:01:36;96145.44;;;14.21;63.68
20971;BME280;10644;48.834;10.088;2022-09-30T09:04:04;96150.59;;;14.32;63.08
20971;BME280;10644;48.834;10.088;2022-09-30T09:06:47;96133.34;;;14.32;62.86
20971;BME280;10644;48.834;10.088;2022-09-30T09:09:46;96140.13;;;14.44;62.91
20971;BME280;10644;48.834;10.088;2022-09-30T09:18:33;96136.00;;;14.53;61.71
20971;BME280;10644;48.834;10.088;2022-09-30T09:23:54;96146.81;;;14.36;62.01
20971;BME280;10644;48.834;10.088;2022-09-30T09:26:23;96145.75;;;14.49;61.66
20971;BME280;10644;48.834;10.088;2022-09-30T09:31:41;96149.34;;;14.58;62.08
20971;BME280;10644;48.834;10.088;2022-09-30T09:34:10;96156.22;;;14.26;62.90
20971;BME280;10644;48.834;10.088;2022-09-30T09:36:57;96156.13;;;14.70;62.28
20971;BME280;10644;48.834;10.088;2022-09-30T09:39:49;96156.25;;;14.79;62.06
20971;BME280;10644;48.834;10.088;2022-09-30T09:45:34;96168.06;;;14.82;62.51
20971;BME280;10644;48.834;10.088;2022-09-30T09:48:06;96164.75;;;14.91;61.09
20971;BME280;10644;48.834;10.088;2022-09-30T09:50:48;96162.56;;;14.75;61.38
20971;BME280;10644;48.834;10.088;2022-09-30T09:53:36;96159.38;;;14.94;61.38
20971;BME280;10644;48.834;10.088;2022-09-30T09:56:12;96159.88;;;14.77;61.43
20971;BME280;10644;48.834;10.088;2022-09-30T09:59:23;96162.47;;;14.77;62.07
20971;BME280;10644;48.834;10.088;2022-09-30T10:01:52;96149.94;;;15.04;61.21
20971;BME280;10644;48.834;10.088;2022-09-30T10:04:26;96156.91;;;15.24;61.06
20971;BME280;10644;48.834;10.088;2022-09-30T10:07:28;96154.50;;;15.43;60.19
20971;BME280;10644;48.834;10.088;2022-09-30T10:10:15;96161.91;;;15.05;60.73
20971;BME280;10644;48.834;10.088;2022-09-30T10:12:47;96174.63;;;14.86;62.04
20971;BME280;10644;48.834;10.088;2022-09-30T10:15:23;96180.84;;;15.15;61.39
20971;BME280;10644;48.834;10.088;2022-09-30T10:17:51;96177.81;;;15.10;61.45
20971;BME280;10644;48.834;10.088;2022-09-30T10:20:30;96177.53;;;15.35;60.61
20971;BME280;10644;48.834;10.088;2022-09-30T10:23:08;96183.28;;;15.59;59.86
20971;BME280;10644;48.834;10.088;2022-09-30T10:25:54;96180.63;;;15.70;59.26
20971;BME280;10644;48.834;10.088;2022-09-30T10:28:32;96175.00;;;15.85;59.04
20971;BME280;10644;48.834;10.088;2022-09-30T10:31:01;96175.22;;;15.73;58.30
20971;BME280;10644;48.834;10.088;2022-09-30T10:36:30;96179.84;;;16.20;57.88
20971;BME280;10644;48.834;10.088;2022-09-30T10:39:15;96172.59;;;16.14;57.61
20971;BME280;10644;48.834;10.088;2022-09-30T10:41:43;96179.75;;;16.31;57.08
20971;BME280;10644;48.834;10.088;2022-09-30T10:44:16;96172.66;;;16.33;56.91
20971;BME280;10644;48.834;10.088;2022-09-30T10:46:44;96185.09;;;16.39;56.80
20971;BME280;10644;48.834;10.088;2022-09-30T10:49:59;96187.44;;;16.42;56.87
20971;BME280;10644;48.834;10.088;2022-09-30T10:52:22;96185.13;;;16.18;57.09
20971;BME280;10644;48.834;10.088;2022-09-30T10:54:56;96194.16;;;16.24;57.37
20971;BME280;10644;48.834;10.088;2022-09-30T11:00:13;96187.25;;;16.34;57.10
20971;BME280;10644;48.834;10.088;2022-09-30T11:03:07;96202.28;;;16.40;56.64
20971;BME280;10644;48.834;10.088;2022-09-30T11:05:47;96207.50;;;16.59;56.53
20971;BME280;10644;48.834;10.088;2022-09-30T11:08:22;96202.72;;;16.04;55.88
20971;BME280;10644;48.834;10.088;2022-09-30T11:11:12;96208.09;;;15.71;57.57
20971;BME280;10644;48.834;10.088;2022-09-30T11:14:12;96203.06;;;16.10;56.94
20971;BME280;10644;48.834;10.088;2022-09-30T11:19:50;96202.78;;;16.34;55.51
20971;BME280;10644;48.834;10.088;2022-09-30T11:24:57;96193.88;;;16.96;54.57
20971;BME280;10644;48.834;10.088;2022-09-30T11:27:38;96203.44;;;17.15;53.82
20971;BME280;10644;48.834;10.088;2022-09-30T11:33:12;96198.06;;;16.88;52.99
20971;BME280;10644;48.834;10.088;2022-09-30T11:35:53;96195.78;;;17.04;53.34
20971;BME280;10644;48.834;10.088;2022-09-30T11:38:48;96200.66;;;16.88;52.76
20971;BME280;10644;48.834;10.088;2022-09-30T11:41:42;96198.44;;;16.74;52.75
20971;BME280;10644;48.834;10.088;2022-09-30T11:44:35;96190.97;;;16.80;53.33
20971;BME280;10644;48.834;10.088;2022-09-30T11:47:24;96194.03;;;17.04;52.72
20971;BME280;10644;48.834;10.088;2022-09-30T11:58:40;96181.41;;;18.14;50.92
20971;BME280;10644;48.834;10.088;2022-09-30T12:01:28;96191.81;;;18.60;49.38
20971;BME280;10644;48.834;10.088;2022-09-30T12:07:03;96179.78;;;18.86;48.11
20971;BME280;10644;48.834;10.088;2022-09-30T12:09:52;96174.31;;;18.89;47.24
20971;BME280;10644;48.834;10.088;2022-09-30T12:12:21;96176.72;;;18.73;47.12
20971;BME280;10644;48.834;10.088;2022-09-30T12:14:55;96170.41;;;18.75;47.04
20971;BME280;10644;48.834;10.088;2022-09-30T12:17:38;96175.09;;;18.89;46.96
20971;BME280;10644;48.834;10.088;2022-09-30T12:25:48;96163.69;;;19.27;46.83
20971;BME280;10644;48.834;10.088;2022-09-30T12:31:56;96181.94;;;19.35;45.82
20971;BME280;10644;48.834;10.088;2022-09-30T12:43:14;96176.75;;;19.35;45.22
20971;BME280;10644;48.834;10.088;2022-09-30T12:49:04;96179.38;;;19.08;45.17
20971;BME280;10644;48.834;10.088;2022-09-30T12:51:41;96180.22;;;19.26;45.60
20971;BME280;10644;48.834;10.088;2022-09-30T12:54:29;96182.38;;;19.48;45.83
20971;BME280;10644;48.834;10.088;2022-09-30T12:57:06;96182.47;;;19.56;45.35
20971;BME280;10644;48.834;10.088;2022-09-30T12:59:42;96173.28;;;19.44;44.84
20971;BME280;10644;48.834;10.088;2022-09-30T13:02:28;96176.31;;;19.57;45.79
20971;BME280;10644;48.834;10.088;2022-09-30T13:08:08;96179.28;;;19.62;45.95
20971;BME280;10644;48.834;10.088;2022-09-30T13:13:31;96186.25;;;20.04;45.64
20971;BME280;10644;48.834;10.088;2022-09-30T13:16:01;96173.75;;;20.25;44.50
20971;BME280;10644;48.834;10.088;2022-09-30T13:23:45;96182.31;;;20.18;44.65
20971;BME280;10644;48.834;10.088;2022-09-30T13:26:39;96186.22;;;20.22;45.08
20971;BME280;10644;48.834;10.088;2022-09-30T13:32:29;96180.19;;;19.96;45.07
20971;BME280;10644;48.834;10.088;2022-09-30T13:34:55;96176.81;;;20.03;44.48
20971;BME280;10644;48.834;10.088;2022-09-30T13:37:32;96174.44;;;20.10;44.80
20971;BME280;10644;48.834;10.088;2022-09-30T13:40:14;96181.00;;;20.22;44.22
20971;BME280;10644;48.834;10.088;2022-09-30T13:42:46;96183.50;;;20.06;44.17
20971;BME280;10644;48.834;10.088;2022-09-30T13:45:33;96183.72;;;20.12;44.41
20971;BME280;10644;48.834;10.088;2022-09-30T13:48:15;96187.53;;;20.26;43.66
20971;BME280;10644;48.834;10.088;2022-09-30T13:51:09;96191.94;;;20.51;44.61
20971;BME280;10644;48.834;10.088;2022-09-30T13:53:54;96187.75;;;20.66;44.12
20971;BME280;10644;48.834;10.088;2022-09-30T13:56:23;96180.13;;;20.64;42.78
20971;BME280;10644;48.834;10.088;2022-09-30T14:10:54;96196.41;;;20.74;42.71
20971;BME280;10644;48.834;10.088;2022-09-30T14:22:41;96193.84;;;21.24;41.29
20971;BME280;10644;48.834;10.088;2022-09-30T14:25:48;96190.16;;;21.50;41.47
20971;BME280;10644;48.834;10.088;2022-09-30T14:29:02;96198.28;;;21.47;40.49
20971;BME280;10644;48.834;10.088;2022-09-30T14:31:25;96184.94;;;21.50;40.23
20971;BME280;10644;48.834;10.088;2022-09-30T14:34:08;96196.81;;;21.53;39.92
20971;BME280;10644;48.834;10.088;2022-09-30T14:36:54;96193.38;;;21.36;39.92
20971;BME280;10644;48.834;10.088;2022-09-30T14:39:24;96198.53;;;21.20;40.16
20971;BME280;10644;48.834;10.088;2022-09-30T14:42:13;96194.75;;;20.99;40.64
20971;BME280;10644;48.834;10.088;2022-09-30T14:44:42;96190.88;;;21.11;40.40
20971;BME280;10644;48.834;10.088;2022-09-30T14:47:25;96209.78;;;21.21;40.53
20971;BME280;10644;48.834;10.088;2022-09-30T14:49:51;96193.47;;;21.11;40.47
20971;BME280;10644;48.834;10.088;2022-09-30T14:52:36;96203.00;;;21.36;40.80
20971;BME280;10644;48.834;10.088;2022-09-30T14:55:24;96202.69;;;21.55;38.90
20971;BME280;10644;48.834;10.088;2022-09-30T14:58:24;96197.78;;;21.44;39.89
20971;BME280;10644;48.834;10.088;2022-09-30T15:01:19;96202.84;;;21.45;39.75
20971;BME280;10644;48.834;10.088;2022-09-30T15:04:23;96206.88;;;21.32;39.51
20971;BME280;10644;48.834;10.088;2022-09-30T15:06:52;96216.19;;;21.34;38.64
20971;BME280;10644;48.834;10.088;2022-09-30T15:09:44;96207.19;;;21.13;39.29
20971;BME280;10644;48.834;10.088;2022-09-30T15:12:13;96209.06;;;20.95;38.82
20971;BME280;10644;48.834;10.088;2022-09-30T15:14:58;96213.66;;;20.75;39.55
20971;BME280;10644;48.834;10.088;2022-09-30T15:17:46;96210.72;;;20.96;39.69
20971;BME280;10644;48.834;10.088;2022-09-30T15:20:30;96212.97;;;20.91;39.81
20971;BME280;10644;48.834;10.088;2022-09-30T15:22:58;96204.53;;;21.05;39.18
20971;BME280;10644;48.834;10.088;2022-09-30T15:25:28;96208.66;;;21.15;39.42
20971;BME280;10644;48.834;10.088;2022-09-30T15:28:29;96207.19;;;21.21;39.65
20971;BME280;10644;48.834;10.088;2022-09-30T15:31:29;96207.84;;;21.23;39.57
20971;BME280;10644;48.834;10.088;2022-09-30T15:34:18;96211.13;;;21.25;39.69
20971;BME280;10644;48.834;10.088;2022-09-30T15:40:47;96216.13;;;20.43;41.43
20971;BME280;10644;48.834;10.088;2022-09-30T16:25:42;96236.53;;;17.11;50.63
20971;BME280;10644;48.834;10.088;2022-09-30T16:28:11;96233.06;;;17.50;49.97
20971;BME280;10644;48.834;10.088;2022-09-30T16:30:45;96233.88;;;17.79;49.05
20971;BME280;10644;48.834;10.088;2022-09-30T16:33:39;96224.56;;;18.15;48.47
20971;BME280;10644;48.834;10.088;2022-09-30T16:36:13;96233.81;;;18.27;48.63
20971;BME280;10644;48.834;10.088;2022-09-30T16:38:40;96240.09;;;18.05;49.61
20971;BME280;10644;48.834;10.088;2022-09-30T16:41:10;96245.31;;;18.15;49.00
20971;BME280;10644;48.834;10.088;2022-09-30T16:43:38;96226.69;;;18.29;48.01
20971;BME280;10644;48.834;10.088;2022-09-30T16:46:05;96239.25;;;18.43;47.67
20971;BME280;10644;48.834;10.088;2022-09-30T16:48:33;96233.63;;;18.47;47.75
20971;BME280;10644;48.834;10.088;2022-09-30T16:53:49;96252.09;;;18.25;49.02
20971;BME280;10644;48.834;10.088;2022-09-30T16:56:26;96256.22;;;18.09;49.99
20971;BME280;10644;48.834;10.088;2022-09-30T16:58:57;96252.69;;;18.10;49.56
20971;BME280;10644;48.834;10.088;2022-09-30T17:01:32;96247.75;;;18.07;49.56